Pagrindinis puslapis
METAR-TAF:

METAR-TAF

Oro uostai :

Loei, Tailandas

platuma: 17-27N, ilguma: 101-44E, Aukštis: 253 m

Dabartinis oras

Ataskaita buvo paskelbta 41 minutes, ne 04:00 UTC
Vėjas 5 kt iš Šiaurės/Šiaurės Rytų, svyruoja nuo Šiaurės Vakarų ir Rytų/Šiaurės Rytų
Temperatūra 30°C
Drėgmė 52%
Slėgis 1015 hPa
Matomumas: 4000 m
migla

METAR: VTUL 020400Z 02005KT 310V070 4000 HZ NSC 30/19 Q1015 NOSIG

Laikas: 11:41 (04:41 UTC)

Prognozė

Ataskaita buvo paskelbta 5 valandos ir 41 minutes, ne 23:00 UTC
Prognozė galioja nuo 02 metu 00 UTC su 02 metu 24 UTC
Vėjas 3 kt iš Šiaurės Vakarų
Matomumas: 4500 m
Mažai debesys ne aukštis 3000 ft
rūkana
Tapsmas
nuo 02 metu 02 UTC su 02 metu 04 UTC
Matomumas: 7000 m
Tapsmas
nuo 02 metu 04 UTC su 02 metu 06 UTC
Vėjas 4 kt iš Rytų/Pietryčių
Tapsmas
nuo 02 metu 22 UTC su 02 metu 24 UTC
Matomumas: 4500 m
rūkana

TAF: VTUL 012300Z 0200/0224 31003KT 4500 BR FEW030 BECMG 0202/0204 7000 NSW BECMG 0204/0206 12004KT BECMG 0222/0224 4500 BR

Orai ataskaitas ir orų prognozės (METAR, TAF).

turimą stotys yra geltonos ir raudonos taškus žemėlapyje.

Perkelti pele per norėdami pamatyti stoties vardą.

Tada spustelėkite, norėdami matyti oro stebėjimo ir prognozės.

Norėdami pakeisti žemėlapį: spustelėkite ant žalios mygtukų su juodo kryžiaus žemyn,; žalią mygtuką su brūkšneliu, jei norite nutolinti; arba žalių rodyklių gretimoms žemėlapius.


METAR-TAF: